createdAt,value
2022-10-17T00:00:29.522Z,99.99
2022-10-17T00:01:29.285Z,99.99
2022-10-17T00:02:29.250Z,99.99
2022-10-17T00:03:29.237Z,99.99
2022-10-17T00:04:29.215Z,99.99
2022-10-17T00:05:29.193Z,99.99
2022-10-17T00:06:29.173Z,99.99
2022-10-17T00:07:30.112Z,99.99
2022-10-17T00:08:29.164Z,99.99
2022-10-17T00:09:29.166Z,99.99
2022-10-17T00:10:29.136Z,99.99
2022-10-17T00:11:29.129Z,99.99
2022-10-17T00:12:29.103Z,99.99
2022-10-17T00:13:29.158Z,99.99
2022-10-17T00:14:29.390Z,99.99
2022-10-17T00:15:29.106Z,99.99
2022-10-17T00:16:29.069Z,99.99
2022-10-17T00:17:29.593Z,99.99
2022-10-17T00:18:29.043Z,99.99
2022-10-17T00:19:29.023Z,99.99
2022-10-17T00:20:29.065Z,99.99
2022-10-17T00:21:29.368Z,99.99
2022-10-17T00:22:29.067Z,99.99
2022-10-17T00:23:29.012Z,99.99
2022-10-17T00:24:28.997Z,99.99
2022-10-17T00:25:28.965Z,99.99
2022-10-17T00:26:28.956Z,99.99
2022-10-17T00:27:29.435Z,99.99
2022-10-17T00:28:29.251Z,99.99
2022-10-17T00:29:28.924Z,99.99
2022-10-17T00:30:28.924Z,99.99
2022-10-17T00:31:28.897Z,99.99
2022-10-17T00:32:29.128Z,99.99
2022-10-17T00:33:28.946Z,99.99
2022-10-17T00:34:28.909Z,99.99
2022-10-17T00:35:29.151Z,99.99
2022-10-17T00:36:28.871Z,99.99
2022-10-17T00:37:28.842Z,99.99
2022-10-17T00:38:28.832Z,99.99
2022-10-17T00:39:28.854Z,99.99
2022-10-17T00:40:28.811Z,99.99
2022-10-17T00:41:28.792Z,99.99
2022-10-17T00:42:29.500Z,99.99
2022-10-17T00:43:28.775Z,99.99
2022-10-17T00:44:28.765Z,99.99
2022-10-17T00:45:28.783Z,99.99
2022-10-17T00:46:28.747Z,99.99
2022-10-17T00:47:28.734Z,99.99
2022-10-17T00:48:28.747Z,99.99
2022-10-17T00:49:29.018Z,99.99
2022-10-17T00:50:28.701Z,99.99
2022-10-17T00:51:28.731Z,99.99
2022-10-17T00:52:29.061Z,99.99
2022-10-17T00:53:28.675Z,99.99
2022-10-17T00:54:28.655Z,99.99
2022-10-17T00:55:28.645Z,99.99
2022-10-17T00:56:28.934Z,99.99
2022-10-17T00:57:28.664Z,99.99
2022-10-17T00:58:28.612Z,99.99
2022-10-17T00:59:28.591Z,99.99
2022-10-17T01:00:28.604Z,99.99
2022-10-17T01:01:28.624Z,99.99
2022-10-17T01:02:28.881Z,99.99
2022-10-17T01:03:28.929Z,99.99
2022-10-17T01:04:28.557Z,99.99
2022-10-17T01:05:28.530Z,99.99
2022-10-17T01:06:28.545Z,99.99
2022-10-17T01:07:31.893Z,99.99
2022-10-17T01:08:28.512Z,99.99
2022-10-17T01:09:28.531Z,99.99
2022-10-17T01:10:28.832Z,99.99
2022-10-17T01:11:28.461Z,99.99
2022-10-17T01:12:28.797Z,99.99
2022-10-17T01:13:28.441Z,99.99
2022-10-17T01:14:28.435Z,99.99
2022-10-17T01:15:28.476Z,99.99
2022-10-17T01:16:28.414Z,99.99
2022-10-17T01:17:28.706Z,99.99
2022-10-17T01:18:28.403Z,99.99
2022-10-17T01:19:28.402Z,99.99
2022-10-17T01:20:28.382Z,99.99
2022-10-17T01:21:28.415Z,99.99
2022-10-17T01:22:28.686Z,99.99
2022-10-17T01:23:28.362Z,99.99
2022-10-17T01:24:28.615Z,99.99
2022-10-17T01:25:28.351Z,99.99
2022-10-17T01:26:28.384Z,99.99
2022-10-17T01:27:28.336Z,99.99
2022-10-17T01:28:28.470Z,99.99
2022-10-17T01:29:28.281Z,99.99
2022-10-17T01:30:28.265Z,99.99
2022-10-17T01:31:28.535Z,99.99
2022-10-17T01:32:28.668Z,99.99
2022-10-17T01:33:28.277Z,99.99
2022-10-17T01:34:28.256Z,99.99
2022-10-17T01:35:28.220Z,99.99
2022-10-17T01:36:28.230Z,99.99
2022-10-17T01:37:28.191Z,99.99
2022-10-17T01:38:28.465Z,99.99
2022-10-17T01:39:30.058Z,99.99
2022-10-17T01:40:28.167Z,99.99
2022-10-17T01:41:28.151Z,99.99
2022-10-17T01:42:28.450Z,99.99
2022-10-17T01:43:28.126Z,99.99
2022-10-17T01:44:28.150Z,99.99
2022-10-17T01:45:28.452Z,99.99
2022-10-17T01:46:28.109Z,99.99
2022-10-17T01:47:28.341Z,99.99
2022-10-17T01:48:28.074Z,99.99
2022-10-17T01:49:28.082Z,99.99
2022-10-17T01:50:28.058Z,99.99
2022-10-17T01:51:28.126Z,99.99
2022-10-17T01:52:28.351Z,99.99
2022-10-17T01:53:28.015Z,99.99
2022-10-17T01:54:28.035Z,99.99
2022-10-17T01:55:28.012Z,99.99
2022-10-17T01:56:27.989Z,99.99
2022-10-17T01:57:28.247Z,99.99
2022-10-17T01:58:27.992Z,99.99
2022-10-17T01:59:28.226Z,99.99
2022-10-17T02:00:27.955Z,99.99
2022-10-17T02:01:28.038Z,99.99
2022-10-17T02:02:27.932Z,99.99
2022-10-17T02:03:27.958Z,99.99
2022-10-17T02:04:27.914Z,99.99
2022-10-17T02:05:27.929Z,99.99
2022-10-17T02:06:28.183Z,99.99
2022-10-17T02:07:28.337Z,99.99
2022-10-17T02:08:27.869Z,99.99
2022-10-17T02:09:28.800Z,99.99
2022-10-17T02:10:27.838Z,99.99
2022-10-17T02:11:27.840Z,99.99
2022-10-17T02:12:27.816Z,99.99
2022-10-17T02:13:28.089Z,99.99
2022-10-17T02:14:27.798Z,99.99
2022-10-17T02:15:27.822Z,99.99
2022-10-17T02:16:27.778Z,99.99
2022-10-17T02:17:28.122Z,99.99
2022-10-17T02:18:27.763Z,99.99
2022-10-17T02:19:27.746Z,99.99
2022-10-17T02:20:28.012Z,99.99
2022-10-17T02:21:27.759Z,99.99
2022-10-17T02:22:27.718Z,99.99
2022-10-17T02:23:27.705Z,99.99
2022-10-17T02:24:27.691Z,99.99
2022-10-17T02:25:27.688Z,99.99
2022-10-17T02:26:27.662Z,99.99
2022-10-17T02:27:28.468Z,99.99
2022-10-17T02:28:27.719Z,99.99
2022-10-17T02:29:27.641Z,99.99
2022-10-17T02:30:27.619Z,99.99
2022-10-17T02:31:27.619Z,99.99
2022-10-17T02:32:27.615Z,99.99
2022-10-17T02:33:27.631Z,99.99
2022-10-17T02:34:27.854Z,99.99
2022-10-17T02:35:27.581Z,99.99
2022-10-17T02:36:27.553Z,99.99
2022-10-17T02:37:27.722Z,99.99
2022-10-17T02:38:27.539Z,99.99
2022-10-17T02:39:27.557Z,99.99
2022-10-17T02:40:27.522Z,99.99
2022-10-17T02:42:27.732Z,99.99
2022-10-17T02:43:27.482Z,99.99
2022-10-17T02:44:27.474Z,99.99
2022-10-17T02:45:27.527Z,99.99
2022-10-17T02:46:27.445Z,99.99
2022-10-17T02:47:27.441Z,99.99
2022-10-17T02:48:27.707Z,99.99
2022-10-17T02:49:27.417Z,99.99
2022-10-17T02:51:27.432Z,99.99
2022-10-17T02:52:27.726Z,99.99
2022-10-17T02:53:27.384Z,99.99
2022-10-17T02:54:27.378Z,99.99
2022-10-17T02:55:27.642Z,99.99
2022-10-17T02:56:27.346Z,99.99
2022-10-17T02:57:27.365Z,99.99
2022-10-17T02:58:27.338Z,99.99
2022-10-17T02:59:27.369Z,99.99
2022-10-17T03:00:27.295Z,99.99
2022-10-17T03:01:27.338Z,99.99
2022-10-17T03:02:27.891Z,99.99
2022-10-17T03:03:27.300Z,99.99
2022-10-17T03:04:27.258Z,99.99
2022-10-17T03:05:27.264Z,99.99
2022-10-17T03:06:27.234Z,99.99
2022-10-17T03:07:27.226Z,99.99
2022-10-17T03:08:27.269Z,99.99
2022-10-17T03:09:27.535Z,99.99
2022-10-17T03:10:27.191Z,99.99
2022-10-17T03:11:27.184Z,99.99
2022-10-17T03:12:27.464Z,99.99
2022-10-17T03:13:27.163Z,99.99
2022-10-17T03:14:27.151Z,99.99
2022-10-17T03:15:27.178Z,99.99
2022-10-17T03:16:27.428Z,99.99
2022-10-17T03:17:27.123Z,99.99
2022-10-17T03:18:27.109Z,99.99
2022-10-17T03:19:27.110Z,99.99
2022-10-17T03:20:27.097Z,99.99
2022-10-17T03:21:27.123Z,99.99
2022-10-17T03:22:27.480Z,99.99
2022-10-17T03:23:27.345Z,99.99
2022-10-17T03:24:27.046Z,99.99
2022-10-17T03:25:27.037Z,99.99
2022-10-17T03:26:27.019Z,99.99
2022-10-17T03:27:27.425Z,99.99
2022-10-17T03:28:27.014Z,99.99
2022-10-17T03:29:26.989Z,99.99
2022-10-17T03:30:27.255Z,99.99
2022-10-17T03:31:27.015Z,99.99
2022-10-17T03:32:26.958Z,99.99
2022-10-17T03:33:26.982Z,99.99
2022-10-17T03:34:26.937Z,99.99
2022-10-17T03:35:26.933Z,99.99
2022-10-17T03:36:26.917Z,99.99
2022-10-17T03:37:27.464Z,99.99
2022-10-17T03:38:26.892Z,99.99
2022-10-17T03:39:26.921Z,99.99
2022-10-17T03:40:26.877Z,99.99
2022-10-17T03:41:26.866Z,99.99
2022-10-17T03:42:26.871Z,99.99
2022-10-17T03:43:26.850Z,99.99
2022-10-17T03:44:27.150Z,99.99
2022-10-17T03:45:26.849Z,99.99
2022-10-17T03:46:26.829Z,99.99
2022-10-17T03:47:27.118Z,99.99
2022-10-17T03:48:26.791Z,99.99
2022-10-17T03:49:26.789Z,99.99
2022-10-17T03:50:26.773Z,99.99
2022-10-17T03:51:27.101Z,99.99
2022-10-17T03:52:26.741Z,99.99
2022-10-17T03:53:26.742Z,99.99
2022-10-17T03:54:26.738Z,99.99
2022-10-17T03:55:26.716Z,99.99
2022-10-17T03:56:26.704Z,99.99
2022-10-17T03:57:27.150Z,99.99
2022-10-17T03:58:26.966Z,99.99
2022-10-17T03:59:26.684Z,99.99
2022-10-17T04:00:26.670Z,99.99
2022-10-17T04:01:26.723Z,99.99
2022-10-17T04:02:26.645Z,99.99
2022-10-17T04:03:26.674Z,99.99
2022-10-17T04:04:26.620Z,99.99
2022-10-17T04:05:26.904Z,99.99
2022-10-17T04:06:26.610Z,99.99
2022-10-17T04:08:26.589Z,99.99
2022-10-17T04:09:26.660Z,99.99
2022-10-17T04:10:26.571Z,99.99
2022-10-17T04:11:26.560Z,99.99
2022-10-17T04:12:27.174Z,99.99
2022-10-17T04:13:26.533Z,99.99
2022-10-17T04:14:26.517Z,99.99
2022-10-17T04:15:26.533Z,99.99
2022-10-17T04:16:26.496Z,99.99
2022-10-17T04:17:26.484Z,99.99
2022-10-17T04:18:26.486Z,99.99
2022-10-17T04:19:26.746Z,99.99
2022-10-17T04:20:26.467Z,99.99
2022-10-17T04:21:26.475Z,99.99
2022-10-17T04:22:26.660Z,99.99
2022-10-17T04:23:26.419Z,99.99
2022-10-17T04:24:26.448Z,99.99
2022-10-17T04:25:26.401Z,99.99
2022-10-17T04:26:26.679Z,99.99
2022-10-17T04:27:26.425Z,99.99
2022-10-17T04:28:26.538Z,99.99
2022-10-17T04:29:26.396Z,99.99
2022-10-17T04:30:26.347Z,99.99
2022-10-17T04:31:26.358Z,99.99
2022-10-17T04:32:26.566Z,99.99
2022-10-17T04:33:26.626Z,99.99
2022-10-17T04:34:26.323Z,99.99
2022-10-17T04:35:26.296Z,99.99
2022-10-17T04:36:26.297Z,99.99
2022-10-17T04:37:26.271Z,99.99
2022-10-17T04:38:28.517Z,99.99
2022-10-17T04:39:26.302Z,99.99
2022-10-17T04:40:26.521Z,99.99
2022-10-17T04:41:26.250Z,99.99
2022-10-17T04:42:26.350Z,99.99
2022-10-17T04:43:26.228Z,99.99
2022-10-17T04:44:26.199Z,99.99
2022-10-17T04:45:26.227Z,99.99
2022-10-17T04:46:26.173Z,99.99
2022-10-17T04:47:26.445Z,99.99
2022-10-17T04:48:26.160Z,99.99
2022-10-17T04:49:26.148Z,99.99
2022-10-17T04:50:26.142Z,99.99
2022-10-17T04:51:26.730Z,99.99
2022-10-17T04:52:26.485Z,99.99
2022-10-17T04:53:26.112Z,99.99
2022-10-17T04:54:26.392Z,99.99
2022-10-17T04:55:26.085Z,99.99
2022-10-17T04:56:26.071Z,99.99
2022-10-17T04:57:26.086Z,99.99
2022-10-17T04:58:26.060Z,99.99
2022-10-17T04:59:26.031Z,99.99
2022-10-17T05:00:26.026Z,99.99
2022-10-17T05:01:26.387Z,99.99
2022-10-17T05:02:26.140Z,99.99
2022-10-17T05:03:26.035Z,99.99
2022-10-17T05:04:25.993Z,99.99
2022-10-17T05:05:25.972Z,99.99
2022-10-17T05:06:25.980Z,99.99
2022-10-17T05:07:25.954Z,99.99
2022-10-17T05:08:26.215Z,99.99
2022-10-17T05:09:25.973Z,99.99
2022-10-17T05:10:25.918Z,99.99
2022-10-17T05:11:25.939Z,99.99
2022-10-17T05:12:25.911Z,99.99
2022-10-17T05:13:25.895Z,99.99
2022-10-17T05:14:25.902Z,99.99
2022-10-17T05:15:25.973Z,99.99
2022-10-17T05:16:25.871Z,99.99
2022-10-17T05:17:25.844Z,99.99
2022-10-17T05:18:25.858Z,99.99
2022-10-17T05:19:25.866Z,99.99
2022-10-17T05:20:25.819Z,99.99
2022-10-17T05:21:26.218Z,99.99
2022-10-17T05:22:25.811Z,99.99
2022-10-17T05:23:25.818Z,99.99
2022-10-17T05:24:25.785Z,99.99
2022-10-17T05:25:25.757Z,99.99
2022-10-17T05:26:25.755Z,99.99
2022-10-17T05:27:25.778Z,99.99
2022-10-17T05:28:25.761Z,99.99
2022-10-17T05:29:25.719Z,99.99
2022-10-17T05:30:25.710Z,99.99
2022-10-17T05:31:25.720Z,99.99
2022-10-17T05:32:25.689Z,99.99
2022-10-17T05:33:26.011Z,99.99
2022-10-17T05:34:25.678Z,99.99
2022-10-17T05:35:25.660Z,99.99
2022-10-17T05:36:25.646Z,99.99
2022-10-17T05:37:25.646Z,99.99
2022-10-17T05:38:25.628Z,99.99
2022-10-17T05:39:25.939Z,99.99
2022-10-17T05:40:25.628Z,99.99
2022-10-17T05:41:25.603Z,99.99
2022-10-17T05:42:25.631Z,99.99
2022-10-17T05:43:25.563Z,99.99
2022-10-17T05:44:25.588Z,99.99
2022-10-17T05:45:25.604Z,99.99
2022-10-17T05:46:25.855Z,99.99
2022-10-17T05:47:25.541Z,99.99
2022-10-17T05:48:25.522Z,99.99
2022-10-17T05:49:33.235Z,99.99
2022-10-17T05:50:25.508Z,99.99
2022-10-17T05:51:25.538Z,99.99
2022-10-17T05:52:25.501Z,99.99
2022-10-17T05:53:25.761Z,99.99
2022-10-17T05:54:25.457Z,99.99
2022-10-17T05:55:25.469Z,99.99
2022-10-17T05:56:25.441Z,99.99
2022-10-17T05:57:25.472Z,99.99
2022-10-17T05:58:45.577Z,99.99
2022-10-17T05:59:25.423Z,99.99
2022-10-17T06:00:25.676Z,99.99
2022-10-17T06:01:25.422Z,99.99
2022-10-17T06:02:25.543Z,99.99
2022-10-17T06:03:25.401Z,99.99
2022-10-17T06:04:25.376Z,99.99
2022-10-17T06:05:25.350Z,99.99
2022-10-17T06:06:25.350Z,99.99
2022-10-17T06:07:25.325Z,99.99
2022-10-17T06:08:25.304Z,99.99
2022-10-17T06:09:25.345Z,99.99
2022-10-17T06:10:25.294Z,99.99
2022-10-17T06:11:25.322Z,99.99
2022-10-17T06:12:25.275Z,99.99
2022-10-17T06:13:25.562Z,99.99
2022-10-17T06:14:25.257Z,99.99
2022-10-17T06:15:25.281Z,99.99
2022-10-17T06:16:25.248Z,99.99
2022-10-17T06:17:25.226Z,99.99
2022-10-17T06:18:25.222Z,99.99
2022-10-17T06:19:25.228Z,99.99
2022-10-17T06:20:25.519Z,99.99
2022-10-17T06:21:25.525Z,99.99
2022-10-17T06:22:25.240Z,99.99
2022-10-17T06:23:25.179Z,99.99
2022-10-17T06:24:25.180Z,99.99
2022-10-17T06:25:25.154Z,99.99
2022-10-17T06:26:25.145Z,99.99
2022-10-17T06:27:25.467Z,99.99
2022-10-17T06:28:25.153Z,99.99
2022-10-17T06:29:25.088Z,99.99
2022-10-17T06:30:25.078Z,99.99
2022-10-17T06:31:25.096Z,99.99
2022-10-17T06:32:25.117Z,99.99
2022-10-17T06:33:25.112Z,99.99
2022-10-17T06:34:25.327Z,99.99
2022-10-17T06:35:25.042Z,99.99
2022-10-17T06:36:25.051Z,99.99
2022-10-17T06:37:25.028Z,99.99
2022-10-17T06:38:25.024Z,99.99
2022-10-17T06:39:25.038Z,99.99
2022-10-17T06:40:25.015Z,99.99
2022-10-17T06:41:25.257Z,99.99
2022-10-17T06:42:24.962Z,99.99
2022-10-17T06:43:28.026Z,99.99
2022-10-17T06:44:24.943Z,99.99
2022-10-17T06:45:24.982Z,99.99
2022-10-17T06:46:24.954Z,99.99
2022-10-17T06:47:24.949Z,99.87
2022-10-17T06:48:25.231Z,99.87
2022-10-17T06:49:24.879Z,99.87
2022-10-17T06:50:24.883Z,99.77
2022-10-17T06:51:24.946Z,99.56
2022-10-17T06:52:24.860Z,99.26
2022-10-17T06:53:24.851Z,99.11
2022-10-17T06:54:24.914Z,98.91
2022-10-17T06:55:25.177Z,98.71
2022-10-17T06:56:24.834Z,98.61
2022-10-17T06:57:24.877Z,98.30
2022-10-17T06:58:24.876Z,98.10
2022-10-17T06:59:24.792Z,98.00
2022-10-17T07:00:24.867Z,97.75
2022-10-17T07:01:24.836Z,97.55
2022-10-17T07:02:25.064Z,97.45
2022-10-17T07:03:24.823Z,97.34
2022-10-17T07:04:24.781Z,97.05
2022-10-17T07:05:24.710Z,96.84
2022-10-17T07:06:24.744Z,96.69
2022-10-17T07:07:24.718Z,96.39
2022-10-17T07:08:24.707Z,96.39
2022-10-17T07:09:25.060Z,96.09
2022-10-17T07:10:24.721Z,95.89
2022-10-17T07:11:24.694Z,95.68
2022-10-17T07:12:24.672Z,95.58
2022-10-17T07:13:24.625Z,95.43
2022-10-17T07:14:24.611Z,95.14
2022-10-17T07:15:24.740Z,95.14
2022-10-17T07:16:24.969Z,94.93
2022-10-17T07:17:24.625Z,94.83
2022-10-17T07:18:24.616Z,94.43
2022-10-17T07:19:24.584Z,94.32
2022-10-17T07:20:24.576Z,93.98
2022-10-17T07:21:24.590Z,93.77
2022-10-17T07:22:24.622Z,93.88
2022-10-17T07:23:24.846Z,93.57
2022-10-17T07:24:24.522Z,93.48
2022-10-17T07:25:24.551Z,93.48
2022-10-17T07:26:24.514Z,93.17
2022-10-17T07:27:24.562Z,93.13
2022-10-17T07:28:24.530Z,93.02
2022-10-17T07:29:24.513Z,92.93
2022-10-17T07:30:24.771Z,92.42
2022-10-17T07:31:24.479Z,92.52
2022-10-17T07:32:24.479Z,92.32
2022-10-17T07:33:24.522Z,92.42
2022-10-17T07:34:24.436Z,92.52
2022-10-17T07:35:24.472Z,92.52
2022-10-17T07:36:24.412Z,92.62
2022-10-17T07:37:24.652Z,92.52
2022-10-17T07:38:24.411Z,92.62
2022-10-17T07:39:24.431Z,92.52
2022-10-17T07:40:24.372Z,92.62
2022-10-17T07:41:24.344Z,92.52
2022-10-17T07:42:24.357Z,92.52
2022-10-17T07:43:24.349Z,92.32
2022-10-17T07:44:24.617Z,92.22
2022-10-17T07:45:24.391Z,92.27
2022-10-17T07:46:24.338Z,91.87
2022-10-17T07:47:24.275Z,91.57
2022-10-17T07:48:24.313Z,91.47
2022-10-17T07:49:24.362Z,91.17
2022-10-17T07:50:24.272Z,91.17
2022-10-17T07:51:24.332Z,91.22
2022-10-17T07:52:24.249Z,90.82
2022-10-17T07:53:24.262Z,90.62
2022-10-17T07:54:24.237Z,90.32
2022-10-17T07:55:24.221Z,90.52
2022-10-17T07:56:24.199Z,90.52
2022-10-17T07:57:24.529Z,90.32
2022-10-17T07:58:24.186Z,90.32
2022-10-17T07:59:24.267Z,90.11
2022-10-17T08:00:24.178Z,89.87
2022-10-17T08:01:24.125Z,89.77
2022-10-17T08:02:24.151Z,89.87
2022-10-17T08:03:24.252Z,89.37
2022-10-17T08:04:24.108Z,89.57
2022-10-17T08:05:24.161Z,89.17
2022-10-17T08:06:24.089Z,88.96
2022-10-17T08:07:28.392Z,88.96
2022-10-17T08:08:24.055Z,88.76
2022-10-17T08:09:24.137Z,88.22
2022-10-17T08:10:24.095Z,88.32
2022-10-17T08:11:24.046Z,87.71
2022-10-17T08:12:24.069Z,87.71
2022-10-17T08:13:24.021Z,87.62
2022-10-17T08:14:23.996Z,87.37
2022-10-17T08:15:27.927Z,87.67
2022-10-17T08:16:23.975Z,87.27
2022-10-17T08:17:24.034Z,87.57
2022-10-17T08:18:23.986Z,87.57
2022-10-17T08:19:23.958Z,87.37
2022-10-17T08:20:23.954Z,87.57
2022-10-17T08:21:23.957Z,87.47
2022-10-17T08:22:24.221Z,87.47
2022-10-17T08:23:23.970Z,87.47
2022-10-17T08:24:23.972Z,87.57
2022-10-17T08:25:23.899Z,87.77
2022-10-17T08:26:23.888Z,87.47
2022-10-17T08:27:23.927Z,87.27
2022-10-17T08:28:23.992Z,87.47
2022-10-17T08:29:23.855Z,87.27
2022-10-17T08:30:23.910Z,87.17
2022-10-17T08:31:23.853Z,87.27
2022-10-17T08:32:23.877Z,87.27
2022-10-17T08:33:23.896Z,86.97
2022-10-17T08:34:23.798Z,87.17
2022-10-17T08:35:24.153Z,86.97
2022-10-17T08:36:23.806Z,86.93
2022-10-17T08:37:23.770Z,86.72
2022-10-17T08:38:26.306Z,86.72
2022-10-17T08:39:23.768Z,86.52
2022-10-17T08:40:23.720Z,86.43
2022-10-17T08:41:23.742Z,86.52
2022-10-17T08:42:23.737Z,86.08
2022-10-17T08:43:23.705Z,85.58
2022-10-17T08:44:23.731Z,84.53
2022-10-17T08:45:23.713Z,84.19
2022-10-17T08:46:23.708Z,83.69
2022-10-17T08:47:23.648Z,83.29
2022-10-17T08:48:23.943Z,83.69
2022-10-17T08:49:23.684Z,83.69
2022-10-17T08:50:23.716Z,83.39
2022-10-17T08:51:23.657Z,83.39
2022-10-17T08:52:23.620Z,83.69
2022-10-17T08:53:23.601Z,83.59
2022-10-17T08:54:23.587Z,83.25
2022-10-17T08:55:23.865Z,83.15
2022-10-17T08:56:36.570Z,83.04
2022-10-17T08:57:23.629Z,83.04
2022-10-17T08:58:23.543Z,83.15
2022-10-17T08:59:23.511Z,83.45
2022-10-17T09:00:23.582Z,83.35
2022-10-17T09:01:23.553Z,83.04
2022-10-17T09:02:23.815Z,83.35
2022-10-17T09:03:23.666Z,83.35
2022-10-17T09:04:23.532Z,82.95
2022-10-17T09:05:26.415Z,82.95
2022-10-17T09:06:23.469Z,82.75
2022-10-17T09:07:23.513Z,82.90
2022-10-17T09:08:23.512Z,82.60
2022-10-17T09:09:23.521Z,82.10
2022-10-17T09:10:23.430Z,81.70
2022-10-17T09:11:23.429Z,82.00
2022-10-17T09:12:23.411Z,81.80
2022-10-17T09:13:23.436Z,81.80
2022-10-17T09:14:23.386Z,82.00
2022-10-17T09:15:23.705Z,82.31
2022-10-17T09:16:23.371Z,81.60
2022-10-17T09:17:23.333Z,81.80
2022-10-17T09:18:23.350Z,82.40
2022-10-17T09:19:23.353Z,82.31
2022-10-17T09:20:23.399Z,82.00
2022-10-17T09:21:23.406Z,82.10
2022-10-17T09:22:23.678Z,81.80
2022-10-17T09:23:23.357Z,81.80
2022-10-17T09:24:23.269Z,81.80
2022-10-17T09:25:23.381Z,81.76
2022-10-17T09:26:23.286Z,81.56
2022-10-17T09:27:23.346Z,81.46
2022-10-17T09:28:23.253Z,81.56
2022-10-17T09:29:23.224Z,81.06
2022-10-17T09:30:40.468Z,81.46
2022-10-17T09:31:23.244Z,80.62
2022-10-17T09:32:23.205Z,79.78
2022-10-17T09:33:35.511Z,79.92
2022-10-17T09:34:26.718Z,79.82
2022-10-17T09:35:23.204Z,79.48
2022-10-17T09:36:23.232Z,78.74
2022-10-17T09:37:23.184Z,78.54
2022-10-17T09:38:23.171Z,78.88
2022-10-17T09:39:23.242Z,79.08
2022-10-17T09:40:23.392Z,78.98
2022-10-17T09:41:44.379Z,79.04
2022-10-17T09:42:23.080Z,79.18
2022-10-17T09:43:23.104Z,78.98
2022-10-17T09:44:23.127Z,79.48
2022-10-17T09:45:23.152Z,79.88
2022-10-17T09:46:23.400Z,79.98
2022-10-17T09:47:23.069Z,79.78
2022-10-17T09:48:23.070Z,79.98
2022-10-17T09:49:23.131Z,79.78
2022-10-17T09:50:23.067Z,79.68
2022-10-17T09:51:26.309Z,79.98
2022-10-17T09:52:23.000Z,79.58
2022-10-17T09:53:23.281Z,79.58
2022-10-17T09:54:23.066Z,79.08
2022-10-17T09:55:23.028Z,79.48
2022-10-17T09:56:22.996Z,79.18
2022-10-17T09:57:23.107Z,78.54
2022-10-17T09:58:22.974Z,78.34
2022-10-17T09:59:22.942Z,77.24
2022-10-17T10:00:23.011Z,76.60
2022-10-17T10:01:24.215Z,76.26
2022-10-17T10:02:22.957Z,75.87
2022-10-17T10:03:22.928Z,76.26
2022-10-17T10:04:22.924Z,75.52
2022-10-17T10:05:22.879Z,74.09
2022-10-17T10:06:22.933Z,74.43
2022-10-17T10:07:28.269Z,75.02
2022-10-17T10:08:22.853Z,75.67
2022-10-17T10:09:22.880Z,75.96
2022-10-17T10:10:22.832Z,76.03
2022-10-17T10:11:22.813Z,75.73
2022-10-17T10:12:23.127Z,75.73
2022-10-17T10:13:22.823Z,75.33
2022-10-17T10:14:22.779Z,75.83
2022-10-17T10:15:22.849Z,75.93
2022-10-17T10:16:22.831Z,76.06
2022-10-17T10:17:22.761Z,76.46
2022-10-17T10:18:22.777Z,77.17
2022-10-17T10:19:23.042Z,77.10
2022-10-17T10:20:22.786Z,77.60
2022-10-17T10:21:22.886Z,77.00
2022-10-17T10:22:22.755Z,77.30
2022-10-17T10:23:22.720Z,77.20
2022-10-17T10:24:25.841Z,77.60
2022-10-17T10:25:22.736Z,77.70
2022-10-17T10:26:23.014Z,77.64
2022-10-17T10:27:22.863Z,77.94
2022-10-17T10:28:22.701Z,77.84
2022-10-17T10:29:22.623Z,78.34
2022-10-17T10:30:22.666Z,78.04
2022-10-17T10:31:37.310Z,78.34
2022-10-17T10:32:22.606Z,78.14
2022-10-17T10:33:22.691Z,77.84
2022-10-17T10:34:22.582Z,78.24
2022-10-17T10:35:22.571Z,78.34
2022-10-17T10:36:22.648Z,78.44
2022-10-17T10:37:22.637Z,77.84
2022-10-17T10:38:22.589Z,78.34
2022-10-17T10:39:23.659Z,78.64
2022-10-17T10:40:22.565Z,78.74
2022-10-17T10:41:22.590Z,78.74
2022-10-17T10:42:22.977Z,79.14
2022-10-17T10:43:22.525Z,79.04
2022-10-17T10:44:22.851Z,78.98
2022-10-17T10:45:46.983Z,79.44
2022-10-17T10:46:22.429Z,79.68
2022-10-17T10:47:22.461Z,78.38
2022-10-17T10:48:22.410Z,78.28
2022-10-17T10:49:22.410Z,78.98
2022-10-17T10:50:22.370Z,78.58
2022-10-17T10:51:22.431Z,79.18
2022-10-17T10:52:22.406Z,79.28
2022-10-17T10:53:22.431Z,79.38
2022-10-17T10:54:22.355Z,79.18
2022-10-17T10:55:22.356Z,78.78
2022-10-17T10:56:22.652Z,78.98
2022-10-17T10:57:22.347Z,79.08
2022-10-17T10:58:22.356Z,79.28
2022-10-17T10:59:22.277Z,79.38
2022-10-17T11:00:22.280Z,79.42
2022-10-17T11:01:22.252Z,79.22
2022-10-17T11:02:22.291Z,79.52
2022-10-17T11:03:22.355Z,79.32
2022-10-17T11:04:22.250Z,79.12
2022-10-17T11:05:22.282Z,79.22
2022-10-17T11:06:22.269Z,79.52
2022-10-17T11:07:22.229Z,79.32
2022-10-17T11:08:22.245Z,79.32
2022-10-17T11:09:22.526Z,79.32
2022-10-17T11:10:22.287Z,78.92
2022-10-17T11:11:22.217Z,78.72
2022-10-17T11:12:22.222Z,78.52
2022-10-17T11:13:22.192Z,78.72
2022-10-17T11:14:22.124Z,78.31
2022-10-17T11:15:22.161Z,78.31
2022-10-17T11:16:22.405Z,78.61
2022-10-17T11:17:22.143Z,78.92
2022-10-17T11:18:22.137Z,79.02
2022-10-17T11:19:22.142Z,78.92
2022-10-17T11:20:22.096Z,79.32
2022-10-17T11:21:22.207Z,79.32
2022-10-17T11:22:24.047Z,79.66
2022-10-17T11:23:22.035Z,79.52
2022-10-17T11:24:22.049Z,79.75
2022-10-17T11:25:22.000Z,79.96
2022-10-17T11:26:22.003Z,80.16
2022-10-17T11:27:22.152Z,80.26
2022-10-17T11:28:22.113Z,80.06
2022-10-17T11:29:22.274Z,79.92
2022-10-17T11:30:22.011Z,79.42
2022-10-17T11:31:22.026Z,78.98
2022-10-17T11:32:21.950Z,78.38
2022-10-17T11:33:22.054Z,77.98
2022-10-17T11:34:21.966Z,77.14
2022-10-17T11:35:21.931Z,77.64
2022-10-17T11:36:21.943Z,77.94
2022-10-17T11:37:21.935Z,77.04
2022-10-17T11:38:21.933Z,77.74
2022-10-17T11:39:21.936Z,77.54
2022-10-17T11:40:24.264Z,77.94
2022-10-17T11:41:21.832Z,78.34
2022-10-17T11:42:21.845Z,77.48
2022-10-17T11:43:21.979Z,77.67
2022-10-17T11:44:21.849Z,78.28
2022-10-17T11:45:21.979Z,78.38
2022-10-17T11:46:21.805Z,78.78
2022-10-17T11:47:22.124Z,78.98
2022-10-17T11:48:21.909Z,78.78
2022-10-17T11:49:21.836Z,79.18
2022-10-17T11:52:43.919Z,78.28
2022-10-17T11:53:23.242Z,78.88
2022-10-17T11:54:21.682Z,78.48
2022-10-17T11:55:21.795Z,78.98
2022-10-17T11:56:21.770Z,78.98
2022-10-17T11:57:21.781Z,78.98
2022-10-17T11:58:21.746Z,79.12
2022-10-17T11:59:22.133Z,79.52
2022-10-17T12:00:21.957Z,79.72
2022-10-17T12:01:21.708Z,80.12
2022-10-17T12:02:21.801Z,80.42
2022-10-17T12:03:21.686Z,80.12
2022-10-17T12:04:21.705Z,80.52
2022-10-17T12:05:21.620Z,79.98
2022-10-17T12:06:23.731Z,79.14
2022-10-17T12:07:21.897Z,79.54
2022-10-17T12:08:21.605Z,79.64
2022-10-17T12:09:21.620Z,79.24
2022-10-17T12:10:21.640Z,79.74
2022-10-17T12:11:21.529Z,80.68
2022-10-17T12:12:21.551Z,81.29
2022-10-17T12:13:21.585Z,80.42
2022-10-17T12:14:21.804Z,81.02
2022-10-17T12:15:21.671Z,80.82
2022-10-17T12:16:21.530Z,81.23
2022-10-17T12:17:21.494Z,80.92
2022-10-17T12:18:21.518Z,81.52
2022-10-17T12:19:21.488Z,81.52
2022-10-17T12:20:21.718Z,80.92
2022-10-17T12:21:22.492Z,81.42
2022-10-17T12:22:21.433Z,81.23
2022-10-17T12:23:21.442Z,81.23
2022-10-17T12:24:21.445Z,81.02
2022-10-17T12:25:21.450Z,80.82
2022-10-17T12:26:21.461Z,80.92
2022-10-17T12:27:21.480Z,80.92
2022-10-17T12:28:21.807Z,80.92
2022-10-17T12:29:21.380Z,81.23
2022-10-17T12:30:21.384Z,81.02
2022-10-17T12:31:21.387Z,81.09
2022-10-17T12:32:21.302Z,80.88
2022-10-17T12:33:21.375Z,80.79
2022-10-17T12:34:21.332Z,80.88
2022-10-17T12:35:21.606Z,80.79
2022-10-17T12:36:21.316Z,80.28
2022-10-17T12:37:21.296Z,80.38
2022-10-17T12:38:21.271Z,80.68
2022-10-17T12:39:21.370Z,80.38
2022-10-17T12:40:21.212Z,80.88
2022-10-17T12:41:21.218Z,80.79
2022-10-17T12:42:21.544Z,81.38
2022-10-17T12:43:21.265Z,81.18
2022-10-17T12:44:21.216Z,81.52
2022-10-17T12:45:21.251Z,81.62
2022-10-17T12:46:21.211Z,81.73
2022-10-17T12:47:21.206Z,81.52
2022-10-17T12:48:21.177Z,81.73
2022-10-17T12:49:21.202Z,81.56
2022-10-17T12:50:21.187Z,81.96
2022-10-17T12:51:35.228Z,82.46
2022-10-17T12:52:21.139Z,82.67
2022-10-17T12:53:21.144Z,82.46
2022-10-17T12:54:21.091Z,82.46
2022-10-17T12:55:21.154Z,83.17
2022-10-17T12:56:21.187Z,83.91
2022-10-17T12:57:21.219Z,83.81